sensor_id;sensor_type;location;lat;lon;timestamp;temperature;humidity
29413;DHT22;16389;50.126;8.450;2023-12-14T00:00:04;3.80;99.90
29413;DHT22;16389;50.126;8.450;2023-12-14T00:02:36;3.80;99.90
29413;DHT22;16389;50.126;8.450;2023-12-14T00:05:05;3.70;99.90
29413;DHT22;16389;50.126;8.450;2023-12-14T00:07:32;3.70;99.90
29413;DHT22;16389;50.126;8.450;2023-12-14T00:13:04;3.90;99.90
29413;DHT22;16389;50.126;8.450;2023-12-14T00:15:36;3.70;99.90
29413;DHT22;16389;50.126;8.450;2023-12-14T00:18:02;3.70;99.90
29413;DHT22;16389;50.126;8.450;2023-12-14T00:20:28;3.70;99.90
29413;DHT22;16389;50.126;8.450;2023-12-14T00:23:14;3.60;99.90
29413;DHT22;16389;50.126;8.450;2023-12-14T00:25:50;3.50;99.90
29413;DHT22;16389;50.126;8.450;2023-12-14T00:28:16;3.50;99.90
29413;DHT22;16389;50.126;8.450;2023-12-14T00:30:46;3.40;99.90
29413;DHT22;16389;50.126;8.450;2023-12-14T00:33:47;3.40;99.90
29413;DHT22;16389;50.126;8.450;2023-12-14T00:36:20;3.30;99.90
29413;DHT22;16389;50.126;8.450;2023-12-14T00:38:53;3.30;99.90
29413;DHT22;16389;50.126;8.450;2023-12-14T00:41:31;3.30;99.90
29413;DHT22;16389;50.126;8.450;2023-12-14T00:43:59;3.30;99.90
29413;DHT22;16389;50.126;8.450;2023-12-14T00:46:26;3.30;99.90
29413;DHT22;16389;50.126;8.450;2023-12-14T00:48:54;3.20;99.90
29413;DHT22;16389;50.126;8.450;2023-12-14T00:51:20;3.10;99.90
29413;DHT22;16389;50.126;8.450;2023-12-14T00:53:46;3.10;99.90
29413;DHT22;16389;50.126;8.450;2023-12-14T00:56:12;3.00;99.90
29413;DHT22;16389;50.126;8.450;2023-12-14T00:58:43;3.00;99.90
29413;DHT22;16389;50.126;8.450;2023-12-14T01:01:33;2.90;99.90
29413;DHT22;16389;50.126;8.450;2023-12-14T01:04:02;2.90;99.90
29413;DHT22;16389;50.126;8.450;2023-12-14T01:06:31;2.90;99.90
29413;DHT22;16389;50.126;8.450;2023-12-14T01:08:59;2.90;99.90
29413;DHT22;16389;50.126;8.450;2023-12-14T01:11:25;2.90;99.90
29413;DHT22;16389;50.126;8.450;2023-12-14T01:14:01;3.00;99.90
29413;DHT22;16389;50.126;8.450;2023-12-14T01:16:48;3.00;99.90
29413;DHT22;16389;50.126;8.450;2023-12-14T01:22:18;3.00;99.90
29413;DHT22;16389;50.126;8.450;2023-12-14T01:24:44;3.00;99.90
29413;DHT22;16389;50.126;8.450;2023-12-14T01:27:12;3.10;99.90
29413;DHT22;16389;50.126;8.450;2023-12-14T01:29:39;3.20;99.90
29413;DHT22;16389;50.126;8.450;2023-12-14T01:32:12;3.30;99.90
29413;DHT22;16389;50.126;8.450;2023-12-14T01:34:41;3.40;99.90
29413;DHT22;16389;50.126;8.450;2023-12-14T01:37:07;3.60;99.90
29413;DHT22;16389;50.126;8.450;2023-12-14T01:39:42;3.80;99.90
29413;DHT22;16389;50.126;8.450;2023-12-14T01:42:08;4.00;99.90
29413;DHT22;16389;50.126;8.450;2023-12-14T01:44:33;4.20;99.90
29413;DHT22;16389;50.126;8.450;2023-12-14T01:47:05;4.30;99.90
29413;DHT22;16389;50.126;8.450;2023-12-14T01:49:31;4.30;99.90
29413;DHT22;16389;50.126;8.450;2023-12-14T01:52:05;4.40;99.90
29413;DHT22;16389;50.126;8.450;2023-12-14T01:54:32;4.40;99.90
29413;DHT22;16389;50.126;8.450;2023-12-14T01:56:58;4.50;99.90
29413;DHT22;16389;50.126;8.450;2023-12-14T01:59:24;4.50;99.90
29413;DHT22;16389;50.126;8.450;2023-12-14T02:01:54;4.60;99.90
29413;DHT22;16389;50.126;8.450;2023-12-14T02:04:23;4.60;99.90
29413;DHT22;16389;50.126;8.450;2023-12-14T02:07:04;4.60;99.90
29413;DHT22;16389;50.126;8.450;2023-12-14T02:09:31;4.70;99.90
29413;DHT22;16389;50.126;8.450;2023-12-14T02:11:56;4.70;99.90
29413;DHT22;16389;50.126;8.450;2023-12-14T02:14:25;4.80;99.90
29413;DHT22;16389;50.126;8.450;2023-12-14T02:16:50;4.90;99.90
29413;DHT22;16389;50.126;8.450;2023-12-14T02:19:17;5.00;99.90
29413;DHT22;16389;50.126;8.450;2023-12-14T02:21:45;5.10;99.90
29413;DHT22;16389;50.126;8.450;2023-12-14T02:24:18;5.10;99.90
29413;DHT22;16389;50.126;8.450;2023-12-14T02:26:44;5.10;99.90
29413;DHT22;16389;50.126;8.450;2023-12-14T02:29:13;5.10;99.90
29413;DHT22;16389;50.126;8.450;2023-12-14T02:31:39;5.20;99.90
29413;DHT22;16389;50.126;8.450;2023-12-14T02:34:28;5.20;99.90
29413;DHT22;16389;50.126;8.450;2023-12-14T02:37:00;5.30;99.90
29413;DHT22;16389;50.126;8.450;2023-12-14T02:39:32;5.30;99.90
29413;DHT22;16389;50.126;8.450;2023-12-14T02:42:01;5.30;99.90
29413;DHT22;16389;50.126;8.450;2023-12-14T02:44:30;5.40;99.90
29413;DHT22;16389;50.126;8.450;2023-12-14T02:47:00;5.40;99.90
29413;DHT22;16389;50.126;8.450;2023-12-14T02:49:25;5.40;99.90
29413;DHT22;16389;50.126;8.450;2023-12-14T02:51:54;5.40;99.90
29413;DHT22;16389;50.126;8.450;2023-12-14T02:54:20;5.40;99.90
29413;DHT22;16389;50.126;8.450;2023-12-14T02:56:45;5.50;99.90
29413;DHT22;16389;50.126;8.450;2023-12-14T02:59:11;5.50;99.90
29413;DHT22;16389;50.126;8.450;2023-12-14T03:01:49;5.50;99.90
29413;DHT22;16389;50.126;8.450;2023-12-14T03:04:15;5.40;99.90
29413;DHT22;16389;50.126;8.450;2023-12-14T03:06:40;5.40;99.90
29413;DHT22;16389;50.126;8.450;2023-12-14T03:09:09;5.30;99.90
29413;DHT22;16389;50.126;8.450;2023-12-14T03:11:59;5.20;99.90
29413;DHT22;16389;50.126;8.450;2023-12-14T03:14:39;5.20;99.90
29413;DHT22;16389;50.126;8.450;2023-12-14T03:17:09;5.20;99.90
29413;DHT22;16389;50.126;8.450;2023-12-14T03:19:42;5.20;99.90
29413;DHT22;16389;50.126;8.450;2023-12-14T03:22:08;5.20;99.90
29413;DHT22;16389;50.126;8.450;2023-12-14T03:24:37;5.10;99.90
29413;DHT22;16389;50.126;8.450;2023-12-14T03:27:03;5.10;99.90
29413;DHT22;16389;50.126;8.450;2023-12-14T03:29:32;5.10;99.90
29413;DHT22;16389;50.126;8.450;2023-12-14T03:31:59;5.10;99.90
29413;DHT22;16389;50.126;8.450;2023-12-14T03:34:27;5.10;99.90
29413;DHT22;16389;50.126;8.450;2023-12-14T03:36:53;5.10;99.90
29413;DHT22;16389;50.126;8.450;2023-12-14T03:39:19;5.20;99.90
29413;DHT22;16389;50.126;8.450;2023-12-14T03:41:54;5.20;99.90
29413;DHT22;16389;50.126;8.450;2023-12-14T03:44:20;5.20;99.90
29413;DHT22;16389;50.126;8.450;2023-12-14T03:46:46;5.20;99.90
29413;DHT22;16389;50.126;8.450;2023-12-14T03:49:11;5.20;99.90
29413;DHT22;16389;50.126;8.450;2023-12-14T03:51:40;5.30;99.90
29413;DHT22;16389;50.126;8.450;2023-12-14T03:57:03;5.20;99.90
29413;DHT22;16389;50.126;8.450;2023-12-14T03:59:29;5.30;99.90
29413;DHT22;16389;50.126;8.450;2023-12-14T04:02:09;5.30;99.90
29413;DHT22;16389;50.126;8.450;2023-12-14T04:04:38;5.30;99.90
29413;DHT22;16389;50.126;8.450;2023-12-14T04:07:10;5.40;99.90
29413;DHT22;16389;50.126;8.450;2023-12-14T04:09:47;5.40;99.90
29413;DHT22;16389;50.126;8.450;2023-12-14T04:12:28;5.40;99.90
29413;DHT22;16389;50.126;8.450;2023-12-14T04:15:04;5.40;99.90
29413;DHT22;16389;50.126;8.450;2023-12-14T04:17:41;5.50;99.90
29413;DHT22;16389;50.126;8.450;2023-12-14T04:20:09;5.50;99.90
29413;DHT22;16389;50.126;8.450;2023-12-14T04:22:35;5.50;99.90
29413;DHT22;16389;50.126;8.450;2023-12-14T04:25:04;5.60;99.90
29413;DHT22;16389;50.126;8.450;2023-12-14T04:27:30;5.60;99.90
29413;DHT22;16389;50.126;8.450;2023-12-14T04:29:55;5.60;99.90
29413;DHT22;16389;50.126;8.450;2023-12-14T04:32:27;5.60;99.90
29413;DHT22;16389;50.126;8.450;2023-12-14T04:34:56;5.60;99.90
29413;DHT22;16389;50.126;8.450;2023-12-14T04:37:22;5.60;99.90
29413;DHT22;16389;50.126;8.450;2023-12-14T04:39:50;5.60;99.90
29413;DHT22;16389;50.126;8.450;2023-12-14T04:42:16;5.60;99.90
29413;DHT22;16389;50.126;8.450;2023-12-14T04:44:45;5.50;99.90
29413;DHT22;16389;50.126;8.450;2023-12-14T04:47:17;5.50;99.90
29413;DHT22;16389;50.126;8.450;2023-12-14T04:49:49;5.60;99.90
29413;DHT22;16389;50.126;8.450;2023-12-14T04:52:35;5.70;99.90
29413;DHT22;16389;50.126;8.450;2023-12-14T04:55:04;5.80;99.90
29413;DHT22;16389;50.126;8.450;2023-12-14T04:57:36;5.90;99.90
29413;DHT22;16389;50.126;8.450;2023-12-14T05:00:18;6.00;99.90
29413;DHT22;16389;50.126;8.450;2023-12-14T05:02:47;6.00;99.90
29413;DHT22;16389;50.126;8.450;2023-12-14T05:05:14;6.20;99.90
29413;DHT22;16389;50.126;8.450;2023-12-14T05:07:45;6.20;99.90
29413;DHT22;16389;50.126;8.450;2023-12-14T05:10:11;6.20;99.90
29413;DHT22;16389;50.126;8.450;2023-12-14T05:12:51;6.30;99.90
29413;DHT22;16389;50.126;8.450;2023-12-14T05:15:27;6.30;99.90
29413;DHT22;16389;50.126;8.450;2023-12-14T05:17:53;6.40;99.90
29413;DHT22;16389;50.126;8.450;2023-12-14T05:20:19;6.40;99.90
29413;DHT22;16389;50.126;8.450;2023-12-14T05:22:46;6.40;99.90
29413;DHT22;16389;50.126;8.450;2023-12-14T05:25:11;6.30;99.90
29413;DHT22;16389;50.126;8.450;2023-12-14T05:27:47;6.40;99.90
29413;DHT22;16389;50.126;8.450;2023-12-14T05:30:18;6.30;99.90
29413;DHT22;16389;50.126;8.450;2023-12-14T05:32:46;6.30;99.90
29413;DHT22;16389;50.126;8.450;2023-12-14T05:35:12;6.30;99.90
29413;DHT22;16389;50.126;8.450;2023-12-14T05:37:41;6.40;99.90
29413;DHT22;16389;50.126;8.450;2023-12-14T05:40:13;6.50;99.90
29413;DHT22;16389;50.126;8.450;2023-12-14T05:42:59;6.50;99.90
29413;DHT22;16389;50.126;8.450;2023-12-14T05:45:38;6.50;99.90
29413;DHT22;16389;50.126;8.450;2023-12-14T05:48:04;6.60;99.90
29413;DHT22;16389;50.126;8.450;2023-12-14T05:50:54;6.60;99.90
29413;DHT22;16389;50.126;8.450;2023-12-14T05:53:25;6.60;99.90
29413;DHT22;16389;50.126;8.450;2023-12-14T05:56:11;6.60;99.90
29413;DHT22;16389;50.126;8.450;2023-12-14T05:58:49;6.60;99.90
29413;DHT22;16389;50.126;8.450;2023-12-14T06:01:19;6.60;99.90
29413;DHT22;16389;50.126;8.450;2023-12-14T06:03:48;6.60;99.90
29413;DHT22;16389;50.126;8.450;2023-12-14T06:06:38;6.60;99.90
29413;DHT22;16389;50.126;8.450;2023-12-14T06:09:13;6.60;99.90
29413;DHT22;16389;50.126;8.450;2023-12-14T06:11:51;6.60;99.90
29413;DHT22;16389;50.126;8.450;2023-12-14T06:14:35;6.60;99.90
29413;DHT22;16389;50.126;8.450;2023-12-14T06:17:11;6.60;99.90
29413;DHT22;16389;50.126;8.450;2023-12-14T06:19:37;6.60;99.90
29413;DHT22;16389;50.126;8.450;2023-12-14T06:22:55;6.60;99.90
29413;DHT22;16389;50.126;8.450;2023-12-14T06:25:06;6.60;99.90
29413;DHT22;16389;50.126;8.450;2023-12-14T06:27:31;6.60;99.90
29413;DHT22;16389;50.126;8.450;2023-12-14T06:29:57;6.60;99.90
29413;DHT22;16389;50.126;8.450;2023-12-14T06:32:29;6.60;99.90
29413;DHT22;16389;50.126;8.450;2023-12-14T06:35:24;6.70;99.90
29413;DHT22;16389;50.126;8.450;2023-12-14T06:38:15;6.70;99.90
29413;DHT22;16389;50.126;8.450;2023-12-14T06:40:41;6.70;99.90
29413;DHT22;16389;50.126;8.450;2023-12-14T06:43:14;6.60;99.90
29413;DHT22;16389;50.126;8.450;2023-12-14T06:48:49;6.60;99.90
29413;DHT22;16389;50.126;8.450;2023-12-14T06:51:15;6.60;99.90
29413;DHT22;16389;50.126;8.450;2023-12-14T06:53:46;6.70;99.90
29413;DHT22;16389;50.126;8.450;2023-12-14T06:56:16;6.70;99.90
29413;DHT22;16389;50.126;8.450;2023-12-14T06:58:47;6.70;99.90
29413;DHT22;16389;50.126;8.450;2023-12-14T07:01:22;6.70;99.90
29413;DHT22;16389;50.126;8.450;2023-12-14T07:04:23;6.70;99.90
29413;DHT22;16389;50.126;8.450;2023-12-14T07:06:52;6.80;99.90
29413;DHT22;16389;50.126;8.450;2023-12-14T07:09:18;6.80;99.90
29413;DHT22;16389;50.126;8.450;2023-12-14T07:11:44;6.80;99.90
29413;DHT22;16389;50.126;8.450;2023-12-14T07:14:10;6.70;99.90
29413;DHT22;16389;50.126;8.450;2023-12-14T07:16:37;6.70;99.90
29413;DHT22;16389;50.126;8.450;2023-12-14T07:19:05;6.60;99.90
29413;DHT22;16389;50.126;8.450;2023-12-14T07:21:33;6.60;99.90
29413;DHT22;16389;50.126;8.450;2023-12-14T07:23:59;6.60;99.90
29413;DHT22;16389;50.126;8.450;2023-12-14T07:26:25;6.60;99.90
29413;DHT22;16389;50.126;8.450;2023-12-14T07:28:53;6.60;99.90
29413;DHT22;16389;50.126;8.450;2023-12-14T07:31:22;6.50;99.90
29413;DHT22;16389;50.126;8.450;2023-12-14T07:33:47;6.60;99.90
29413;DHT22;16389;50.126;8.450;2023-12-14T07:36:13;6.60;99.90
29413;DHT22;16389;50.126;8.450;2023-12-14T07:38:39;6.60;99.90
29413;DHT22;16389;50.126;8.450;2023-12-14T07:41:04;6.60;99.90
29413;DHT22;16389;50.126;8.450;2023-12-14T07:43:30;6.60;99.90
29413;DHT22;16389;50.126;8.450;2023-12-14T07:45:57;6.70;99.90
29413;DHT22;16389;50.126;8.450;2023-12-14T07:48:23;6.70;99.90
29413;DHT22;16389;50.126;8.450;2023-12-14T07:50:49;6.80;99.90
29413;DHT22;16389;50.126;8.450;2023-12-14T07:53:14;6.80;99.90
29413;DHT22;16389;50.126;8.450;2023-12-14T07:55:40;6.80;99.90
29413;DHT22;16389;50.126;8.450;2023-12-14T07:58:06;6.90;99.90
29413;DHT22;16389;50.126;8.450;2023-12-14T08:00:31;6.90;99.90
29413;DHT22;16389;50.126;8.450;2023-12-14T08:03:00;7.00;99.90
29413;DHT22;16389;50.126;8.450;2023-12-14T08:05:26;7.00;99.90
29413;DHT22;16389;50.126;8.450;2023-12-14T08:07:54;7.00;99.90
29413;DHT22;16389;50.126;8.450;2023-12-14T08:10:20;7.00;99.90
29413;DHT22;16389;50.126;8.450;2023-12-14T08:12:45;7.00;99.90
29413;DHT22;16389;50.126;8.450;2023-12-14T08:15:13;7.10;99.90
29413;DHT22;16389;50.126;8.450;2023-12-14T08:17:38;7.10;99.90
29413;DHT22;16389;50.126;8.450;2023-12-14T08:20:04;7.10;99.90
29413;DHT22;16389;50.126;8.450;2023-12-14T08:22:35;7.10;99.90
29413;DHT22;16389;50.126;8.450;2023-12-14T08:25:01;7.10;99.90
29413;DHT22;16389;50.126;8.450;2023-12-14T08:27:26;7.10;99.90
29413;DHT22;16389;50.126;8.450;2023-12-14T08:29:58;7.20;99.90
29413;DHT22;16389;50.126;8.450;2023-12-14T08:32:27;7.10;99.90
29413;DHT22;16389;50.126;8.450;2023-12-14T08:34:52;7.10;99.90
29413;DHT22;16389;50.126;8.450;2023-12-14T08:37:18;7.10;99.90
29413;DHT22;16389;50.126;8.450;2023-12-14T08:39:44;7.10;99.90
29413;DHT22;16389;50.126;8.450;2023-12-14T08:42:09;7.20;99.90
29413;DHT22;16389;50.126;8.450;2023-12-14T08:44:39;7.20;99.90
29413;DHT22;16389;50.126;8.450;2023-12-14T08:47:05;7.30;99.90
29413;DHT22;16389;50.126;8.450;2023-12-14T08:49:31;7.30;99.90
29413;DHT22;16389;50.126;8.450;2023-12-14T08:51:57;7.40;99.90
29413;DHT22;16389;50.126;8.450;2023-12-14T08:54:22;7.40;99.90
29413;DHT22;16389;50.126;8.450;2023-12-14T08:56:48;7.40;99.90
29413;DHT22;16389;50.126;8.450;2023-12-14T08:59:14;7.40;99.90
29413;DHT22;16389;50.126;8.450;2023-12-14T09:01:39;7.40;99.90
29413;DHT22;16389;50.126;8.450;2023-12-14T09:04:05;7.40;99.90
29413;DHT22;16389;50.126;8.450;2023-12-14T09:06:30;7.40;99.90
29413;DHT22;16389;50.126;8.450;2023-12-14T09:08:56;7.40;99.90
29413;DHT22;16389;50.126;8.450;2023-12-14T09:11:22;7.40;99.90
29413;DHT22;16389;50.126;8.450;2023-12-14T09:13:51;7.40;99.90
29413;DHT22;16389;50.126;8.450;2023-12-14T09:16:17;7.40;99.90
29413;DHT22;16389;50.126;8.450;2023-12-14T09:18:42;7.40;99.90
29413;DHT22;16389;50.126;8.450;2023-12-14T09:21:08;7.40;99.90
29413;DHT22;16389;50.126;8.450;2023-12-14T09:23:34;7.40;99.90
29413;DHT22;16389;50.126;8.450;2023-12-14T09:25:59;7.40;99.90
29413;DHT22;16389;50.126;8.450;2023-12-14T09:28:25;7.40;99.90
29413;DHT22;16389;50.126;8.450;2023-12-14T09:30:52;7.40;99.90
29413;DHT22;16389;50.126;8.450;2023-12-14T09:33:17;7.40;99.90
29413;DHT22;16389;50.126;8.450;2023-12-14T09:35:43;7.40;99.90
29413;DHT22;16389;50.126;8.450;2023-12-14T09:38:09;7.40;99.90
29413;DHT22;16389;50.126;8.450;2023-12-14T09:40:36;7.30;99.90
29413;DHT22;16389;50.126;8.450;2023-12-14T09:43:02;7.30;99.90
29413;DHT22;16389;50.126;8.450;2023-12-14T09:45:29;7.40;99.90
29413;DHT22;16389;50.126;8.450;2023-12-14T09:48:00;7.40;99.90
29413;DHT22;16389;50.126;8.450;2023-12-14T09:50:26;7.40;99.90
29413;DHT22;16389;50.126;8.450;2023-12-14T09:52:52;7.40;99.90
29413;DHT22;16389;50.126;8.450;2023-12-14T09:55:17;7.30;99.90
29413;DHT22;16389;50.126;8.450;2023-12-14T09:57:43;7.30;99.90
29413;DHT22;16389;50.126;8.450;2023-12-14T10:00:09;7.40;99.90
29413;DHT22;16389;50.126;8.450;2023-12-14T10:02:42;7.40;99.90
29413;DHT22;16389;50.126;8.450;2023-12-14T10:05:10;7.40;99.90
29413;DHT22;16389;50.126;8.450;2023-12-14T10:07:42;7.40;99.90
29413;DHT22;16389;50.126;8.450;2023-12-14T10:10:13;7.40;99.90
29413;DHT22;16389;50.126;8.450;2023-12-14T10:12:59;7.40;99.90
29413;DHT22;16389;50.126;8.450;2023-12-14T10:15:26;7.40;99.90
29413;DHT22;16389;50.126;8.450;2023-12-14T10:17:52;7.50;99.90
29413;DHT22;16389;50.126;8.450;2023-12-14T10:20:23;7.50;99.90
29413;DHT22;16389;50.126;8.450;2023-12-14T10:22:49;7.60;99.90
29413;DHT22;16389;50.126;8.450;2023-12-14T10:25:15;7.50;99.90
29413;DHT22;16389;50.126;8.450;2023-12-14T10:27:48;7.60;99.90
29413;DHT22;16389;50.126;8.450;2023-12-14T10:30:16;7.60;99.90
29413;DHT22;16389;50.126;8.450;2023-12-14T10:32:42;7.60;99.90
29413;DHT22;16389;50.126;8.450;2023-12-14T10:35:08;7.70;99.90
29413;DHT22;16389;50.126;8.450;2023-12-14T10:37:37;7.70;99.90
29413;DHT22;16389;50.126;8.450;2023-12-14T10:40:08;7.80;99.90
29413;DHT22;16389;50.126;8.450;2023-12-14T10:42:36;7.80;99.90
29413;DHT22;16389;50.126;8.450;2023-12-14T10:45:03;7.80;99.90
29413;DHT22;16389;50.126;8.450;2023-12-14T10:47:29;7.80;99.90
29413;DHT22;16389;50.126;8.450;2023-12-14T10:49:57;7.80;99.90
29413;DHT22;16389;50.126;8.450;2023-12-14T10:52:25;7.70;99.90
29413;DHT22;16389;50.126;8.450;2023-12-14T10:54:57;7.90;99.90
29413;DHT22;16389;50.126;8.450;2023-12-14T10:57:24;7.90;99.90
29413;DHT22;16389;50.126;8.450;2023-12-14T10:59:59;8.00;99.90
29413;DHT22;16389;50.126;8.450;2023-12-14T11:02:25;8.00;99.90
29413;DHT22;16389;50.126;8.450;2023-12-14T11:05:01;8.10;99.90
29413;DHT22;16389;50.126;8.450;2023-12-14T11:07:47;8.10;99.90
29413;DHT22;16389;50.126;8.450;2023-12-14T11:10:14;8.20;99.90
29413;DHT22;16389;50.126;8.450;2023-12-14T11:13:12;8.20;99.90
29413;DHT22;16389;50.126;8.450;2023-12-14T11:15:38;8.20;99.90
29413;DHT22;16389;50.126;8.450;2023-12-14T11:21:00;8.30;99.90
29413;DHT22;16389;50.126;8.450;2023-12-14T11:23:32;8.50;99.90
29413;DHT22;16389;50.126;8.450;2023-12-14T11:26:06;8.60;99.90
29413;DHT22;16389;50.126;8.450;2023-12-14T11:28:36;8.70;99.90
29413;DHT22;16389;50.126;8.450;2023-12-14T11:31:02;8.80;99.90
29413;DHT22;16389;50.126;8.450;2023-12-14T11:33:32;9.00;99.90
29413;DHT22;16389;50.126;8.450;2023-12-14T11:35:58;9.10;99.90
29413;DHT22;16389;50.126;8.450;2023-12-14T11:38:24;9.20;99.90
29413;DHT22;16389;50.126;8.450;2023-12-14T11:40:50;9.20;99.90
29413;DHT22;16389;50.126;8.450;2023-12-14T11:43:16;9.10;99.90
29413;DHT22;16389;50.126;8.450;2023-12-14T11:45:45;9.10;99.90
29413;DHT22;16389;50.126;8.450;2023-12-14T11:48:12;9.20;99.90
29413;DHT22;16389;50.126;8.450;2023-12-14T11:50:39;9.30;99.90
29413;DHT22;16389;50.126;8.450;2023-12-14T11:53:05;9.40;99.90
29413;DHT22;16389;50.126;8.450;2023-12-14T11:55:32;9.40;99.90
29413;DHT22;16389;50.126;8.450;2023-12-14T11:57:59;9.50;99.90
29413;DHT22;16389;50.126;8.450;2023-12-14T12:00:26;9.50;99.90
29413;DHT22;16389;50.126;8.450;2023-12-14T12:03:06;9.50;99.90
29413;DHT22;16389;50.126;8.450;2023-12-14T12:05:39;9.20;99.90
29413;DHT22;16389;50.126;8.450;2023-12-14T12:08:06;9.00;99.90
29413;DHT22;16389;50.126;8.450;2023-12-14T12:10:33;8.90;99.90
29413;DHT22;16389;50.126;8.450;2023-12-14T12:13:03;8.80;99.90
29413;DHT22;16389;50.126;8.450;2023-12-14T12:15:33;8.70;99.90
29413;DHT22;16389;50.126;8.450;2023-12-14T12:18:03;8.50;99.90
29413;DHT22;16389;50.126;8.450;2023-12-14T12:20:29;8.50;99.90
29413;DHT22;16389;50.126;8.450;2023-12-14T12:22:55;8.40;99.90
29413;DHT22;16389;50.126;8.450;2023-12-14T12:25:20;8.20;99.90
29413;DHT22;16389;50.126;8.450;2023-12-14T12:27:47;8.10;99.90
29413;DHT22;16389;50.126;8.450;2023-12-14T12:30:12;8.00;99.90
29413;DHT22;16389;50.126;8.450;2023-12-14T12:32:41;7.80;99.90
29413;DHT22;16389;50.126;8.450;2023-12-14T12:35:07;7.70;99.90
29413;DHT22;16389;50.126;8.450;2023-12-14T12:37:33;7.60;99.90
29413;DHT22;16389;50.126;8.450;2023-12-14T12:39:59;7.50;99.90
29413;DHT22;16389;50.126;8.450;2023-12-14T12:42:25;7.60;99.90
29413;DHT22;16389;50.126;8.450;2023-12-14T12:44:51;7.60;99.90
29413;DHT22;16389;50.126;8.450;2023-12-14T12:47:17;7.70;99.90
29413;DHT22;16389;50.126;8.450;2023-12-14T12:49:43;7.80;99.90
29413;DHT22;16389;50.126;8.450;2023-12-14T12:52:12;8.10;99.90
29413;DHT22;16389;50.126;8.450;2023-12-14T12:54:38;8.30;99.90
29413;DHT22;16389;50.126;8.450;2023-12-14T12:57:05;8.40;99.90
29413;DHT22;16389;50.126;8.450;2023-12-14T12:59:31;8.40;99.90
29413;DHT22;16389;50.126;8.450;2023-12-14T13:01:57;8.50;99.90
29413;DHT22;16389;50.126;8.450;2023-12-14T13:04:23;8.50;99.90
29413;DHT22;16389;50.126;8.450;2023-12-14T13:06:55;8.40;99.90
29413;DHT22;16389;50.126;8.450;2023-12-14T13:09:21;8.40;99.90
29413;DHT22;16389;50.126;8.450;2023-12-14T13:12:00;8.30;99.90
29413;DHT22;16389;50.126;8.450;2023-12-14T13:14:26;8.30;99.90
29413;DHT22;16389;50.126;8.450;2023-12-14T13:16:51;8.20;99.90
29413;DHT22;16389;50.126;8.450;2023-12-14T13:19:17;8.20;99.90
29413;DHT22;16389;50.126;8.450;2023-12-14T13:22:12;8.20;99.90
29413;DHT22;16389;50.126;8.450;2023-12-14T13:24:42;8.10;99.90
29413;DHT22;16389;50.126;8.450;2023-12-14T13:27:10;8.30;99.90
29413;DHT22;16389;50.126;8.450;2023-12-14T13:29:36;8.40;99.90
29413;DHT22;16389;50.126;8.450;2023-12-14T13:32:02;8.50;99.90
29413;DHT22;16389;50.126;8.450;2023-12-14T13:34:28;8.50;99.90
29413;DHT22;16389;50.126;8.450;2023-12-14T13:36:54;8.50;99.90
29413;DHT22;16389;50.126;8.450;2023-12-14T13:39:23;8.40;99.90
29413;DHT22;16389;50.126;8.450;2023-12-14T13:41:49;8.30;99.90
29413;DHT22;16389;50.126;8.450;2023-12-14T13:44:15;8.30;99.90
29413;DHT22;16389;50.126;8.450;2023-12-14T13:46:40;8.30;99.90
29413;DHT22;16389;50.126;8.450;2023-12-14T13:49:08;8.20;99.90
29413;DHT22;16389;50.126;8.450;2023-12-14T13:51:35;8.20;99.90
29413;DHT22;16389;50.126;8.450;2023-12-14T13:54:01;8.10;99.90
29413;DHT22;16389;50.126;8.450;2023-12-14T13:56:26;8.00;99.90
29413;DHT22;16389;50.126;8.450;2023-12-14T13:58:53;7.90;99.90
29413;DHT22;16389;50.126;8.450;2023-12-14T14:01:18;7.80;99.90
29413;DHT22;16389;50.126;8.450;2023-12-14T14:03:44;7.70;99.90
29413;DHT22;16389;50.126;8.450;2023-12-14T14:06:13;7.60;99.90
29413;DHT22;16389;50.126;8.450;2023-12-14T14:08:39;7.60;99.90
29413;DHT22;16389;50.126;8.450;2023-12-14T14:11:05;7.50;99.90
29413;DHT22;16389;50.126;8.450;2023-12-14T14:13:31;7.50;99.90
29413;DHT22;16389;50.126;8.450;2023-12-14T14:15:59;7.50;99.90
29413;DHT22;16389;50.126;8.450;2023-12-14T14:18:25;7.40;99.90
29413;DHT22;16389;50.126;8.450;2023-12-14T14:20:52;7.30;99.90
29413;DHT22;16389;50.126;8.450;2023-12-14T14:23:17;7.30;99.90
29413;DHT22;16389;50.126;8.450;2023-12-14T14:25:43;7.30;99.90
29413;DHT22;16389;50.126;8.450;2023-12-14T14:28:09;7.40;99.90
29413;DHT22;16389;50.126;8.450;2023-12-14T14:30:38;7.40;99.90
29413;DHT22;16389;50.126;8.450;2023-12-14T14:33:07;7.30;99.90
29413;DHT22;16389;50.126;8.450;2023-12-14T14:35:32;7.30;99.90
29413;DHT22;16389;50.126;8.450;2023-12-14T14:37:59;7.30;99.90
29413;DHT22;16389;50.126;8.450;2023-12-14T14:40:26;7.30;99.90
29413;DHT22;16389;50.126;8.450;2023-12-14T14:42:52;7.30;99.90
29413;DHT22;16389;50.126;8.450;2023-12-14T14:45:17;7.20;99.90
29413;DHT22;16389;50.126;8.450;2023-12-14T14:47:43;7.20;99.90
29413;DHT22;16389;50.126;8.450;2023-12-14T14:50:09;7.10;99.90
29413;DHT22;16389;50.126;8.450;2023-12-14T14:52:35;7.10;99.90
29413;DHT22;16389;50.126;8.450;2023-12-14T14:55:00;7.10;99.90
29413;DHT22;16389;50.126;8.450;2023-12-14T14:57:27;7.00;99.90
29413;DHT22;16389;50.126;8.450;2023-12-14T14:59:52;7.00;99.90
29413;DHT22;16389;50.126;8.450;2023-12-14T15:02:19;6.90;99.90
29413;DHT22;16389;50.126;8.450;2023-12-14T15:04:44;6.90;99.90
29413;DHT22;16389;50.126;8.450;2023-12-14T15:07:10;6.80;99.90
29413;DHT22;16389;50.126;8.450;2023-12-14T15:09:39;6.80;99.90
29413;DHT22;16389;50.126;8.450;2023-12-14T15:12:08;6.70;99.90
29413;DHT22;16389;50.126;8.450;2023-12-14T15:14:41;6.70;99.90
29413;DHT22;16389;50.126;8.450;2023-12-14T15:17:26;6.70;99.90
29413;DHT22;16389;50.126;8.450;2023-12-14T15:19:52;6.70;99.90
29413;DHT22;16389;50.126;8.450;2023-12-14T15:22:18;6.60;99.90
29413;DHT22;16389;50.126;8.450;2023-12-14T15:24:47;6.50;99.90
29413;DHT22;16389;50.126;8.450;2023-12-14T15:27:14;6.40;99.90
29413;DHT22;16389;50.126;8.450;2023-12-14T15:29:40;6.40;99.90
29413;DHT22;16389;50.126;8.450;2023-12-14T15:32:06;6.30;99.90
29413;DHT22;16389;50.126;8.450;2023-12-14T15:34:32;6.30;99.90
29413;DHT22;16389;50.126;8.450;2023-12-14T15:36:57;6.20;99.90
29413;DHT22;16389;50.126;8.450;2023-12-14T15:39:23;6.10;99.90
29413;DHT22;16389;50.126;8.450;2023-12-14T15:41:51;6.10;99.90
29413;DHT22;16389;50.126;8.450;2023-12-14T15:44:17;6.10;99.90
29413;DHT22;16389;50.126;8.450;2023-12-14T15:46:51;6.00;99.90
29413;DHT22;16389;50.126;8.450;2023-12-14T15:49:16;6.10;99.90
29413;DHT22;16389;50.126;8.450;2023-12-14T15:51:42;6.00;99.90
29413;DHT22;16389;50.126;8.450;2023-12-14T15:54:08;6.00;99.90
29413;DHT22;16389;50.126;8.450;2023-12-14T15:56:36;5.90;99.90
29413;DHT22;16389;50.126;8.450;2023-12-14T15:59:02;5.80;99.90
29413;DHT22;16389;50.126;8.450;2023-12-14T16:01:32;5.70;99.90
29413;DHT22;16389;50.126;8.450;2023-12-14T16:03:58;5.60;99.90
29413;DHT22;16389;50.126;8.450;2023-12-14T16:06:24;5.50;99.90
29413;DHT22;16389;50.126;8.450;2023-12-14T16:08:49;5.40;99.90
29413;DHT22;16389;50.126;8.450;2023-12-14T16:11:15;5.50;99.90